Flight Track Log - Related Links

Times and Time Zones

All times are in EDT time to prevent confusion due to time zone crossing. See the JZA8476 flight status page for this flight to view local times or setup timezone preferences in your user account.

Time Position Orientation Groundspeed Altitude Reporting Facility
EDT Latitude Longitude Course Direction KTS MPH feet Rate Location/Type
Sun 11:06:09 AM 55.1333 -118.9167 148° Southeast 130 150 2,900  Level Edmonton Center
Sun 11:07:09 AM 55.1167 -118.8667 120° Southeast 150 173 4,000 1,000 Climbing Edmonton Center
Sun 11:08:09 AM 55.0667 -118.8167 150° Southeast 170 196 4,900 1,000 Climbing Edmonton Center
Sun 11:09:09 AM 55.0167 -118.7500 143° Southeast 190 219 6,000 1,100 Climbing Edmonton Center
Sun 11:10:00 AM 54.8945 -118.5034 142° Southeast  Level Estimated
Sun 11:10:09 AM 54.9667 -118.7000 150° Southeast 190 219 7,100  Level Edmonton Center
Sun 11:11:00 AM 54.8334 -118.4379 148° Southeast  Level FlightAware Approximate
Sun 11:11:09 AM 54.9333 -118.6500 139° Southeast 200 230 8,000  Level Edmonton Center
Sun 11:12:09 AM 54.8833 -118.5833 143° Southeast 200 230 9,100 1,100 Climbing Edmonton Center
Sun 11:13:09 AM 54.8333 -118.5333 150° Southeast 200 230 10,200 1,000 Climbing Edmonton Center
Sun 11:14:09 AM 54.8000 -118.4500 125° Southeast 210 242 11,100 900 Climbing Edmonton Center
Sun 11:15:09 AM 54.7500 -118.4167 159° South 210 242 12,000 900 Climbing Edmonton Center
Sun 11:16:09 AM 54.7000 -118.3333 136° Southeast 220 253 12,900 850 Climbing Edmonton Center
Sun 11:17:09 AM 54.6500 -118.2833 150° Southeast 220 253 13,700 750 Climbing Edmonton Center
Sun 11:18:09 AM 54.6000 -118.2167 142° Southeast 220 253 14,400 700 Climbing Edmonton Center
Sun 11:19:09 AM 54.5333 -118.1667 156° South 220 253 15,100 650 Climbing Edmonton Center
Sun 11:20:09 AM 54.5000 -118.0833 125° Southeast 220 253 15,700 650 Climbing Edmonton Center
Sun 11:21:09 AM 54.4500 -118.0500 159° South 230 265 16,400 650 Climbing Edmonton Center
Sun 11:22:09 AM 54.3833 -117.9667 144° Southeast 230 265 17,000 550 Climbing Edmonton Center
Sun 11:23:09 AM 54.3333 -117.9167 150° Southeast 230 265 17,500 500 Climbing Edmonton Center
Sun 11:24:09 AM 54.2833 -117.8333 136° Southeast 240 276 18,000 500 Climbing Edmonton Center
Sun 11:25:09 AM 54.2167 -117.7667 150° Southeast 240 276 18,500 450 Climbing Edmonton Center
Sun 11:26:09 AM 54.1833 -117.7167 139° Southeast 240 276 18,900 450 Climbing Edmonton Center
Sun 11:27:09 AM 54.1167 -117.6333 144° Southeast 240 276 19,400 450 Climbing Edmonton Center
Sun 11:28:09 AM 54.0500 -117.5667 150° Southeast 240 276 19,800 400 Climbing Edmonton Center
Sun 11:29:09 AM 54.0167 -117.5167 139° Southeast 240 276 20,200 400 Climbing Edmonton Center
Sun 11:30:09 AM 53.9500 -117.4333 144° Southeast 250 288 20,600 350 Climbing Edmonton Center
Sun 11:31:09 AM 53.8833 -117.3667 149° Southeast 250 288 20,900 450 Climbing Edmonton Center
Sun 11:32:09 AM 53.8333 -117.2833 135° Southeast 250 288 21,500 500 Climbing Edmonton Center
Sun 11:33:09 AM 53.7833 -117.2500 158° South 240 276 21,900 500 Climbing Edmonton Center
Sun 11:34:09 AM 53.7167 -117.1667 143° Southeast 240 276 22,500 450 Climbing Edmonton Center
Sun 11:35:09 AM 53.6667 -117.0833 135° Southeast 240 276 22,800 250 Climbing Edmonton Center
Sun 11:36:09 AM 53.6000 -117.0500 163° South 250 288 23,000 100 Climbing Edmonton Center
Sun 11:37:09 AM 53.5500 -116.9667 135° Southeast 260 299 23,000  Level Edmonton Center
Sun 11:38:09 AM 53.4833 -116.8833 143° Southeast 270 311 23,000  Level Edmonton Center
Sun 11:39:09 AM 53.4167 -116.8167 149° Southeast 280 322 23,000  Level Edmonton Center
Sun 11:40:09 AM 53.3500 -116.7333 143° Southeast 280 322 23,000  Level Edmonton Center
Sun 11:41:09 AM 53.2833 -116.6667 149° Southeast 280 322 23,000  Level Edmonton Center
Sun 11:42:09 AM 53.2167 -116.5833 143° Southeast 280 322 23,000  Level Edmonton Center
Sun 11:43:09 AM 53.1500 -116.5167 149° Southeast 290 334 23,000  Level Edmonton Center
Sun 11:44:09 AM 53.1000 -116.4333 135° Southeast 290 334 23,000  Level Edmonton Center
Sun 11:45:09 AM 53.0167 -116.3667 154° Southeast 290 334 23,000  Level Edmonton Center
Sun 11:46:09 AM 52.9500 -116.2833 143° Southeast 290 334 23,000  Level Edmonton Center
Sun 11:47:09 AM 52.9000 -116.2167 141° Southeast 290 334 23,000  Level Edmonton Center
Sun 11:48:09 AM 52.8167 -116.1333 149° Southeast 280 322 23,000  Level Edmonton Center
Sun 11:49:09 AM 52.7500 -116.0667 149° Southeast 280 322 23,000  Level Edmonton Center
Sun 11:50:09 AM 52.7000 -115.9833 135° Southeast 280 322 23,000  Level Edmonton Center
Sun 11:51:09 AM 52.6333 -115.9167 149° Southeast 280 322 23,000  Level Edmonton Center
Sun 11:52:09 AM 52.5500 -115.8333 149° Southeast 290 334 23,000  Level Edmonton Center
Sun 11:53:09 AM 52.5000 -115.7667 141° Southeast 280 322 23,000  Level Edmonton Center
Sun 11:54:09 AM 52.4333 -115.7000 149° Southeast 280 322 23,000  Level Edmonton Center
Sun 11:55:09 AM 52.3500 -115.6167 149° Southeast 280 322 23,000  Level Edmonton Center
Sun 11:56:09 AM 52.3000 -115.5500 141° Southeast 280 322 23,000  Level Edmonton Center
Sun 11:57:09 AM 52.2333 -115.5000 155° Southeast 280 322 23,000  Level Edmonton Center
Sun 11:58:09 AM 52.1667 -115.4333 148° Southeast 280 322 23,000 -400 Level Edmonton Center
Sun 11:59:09 AM 52.1000 -115.3333 137° Southeast 280 322 22,200 -1,000 Descending Edmonton Center
Sun 12:00:09 PM 52.0333 -115.2833 155° Southeast 300 345 21,000 -1,250 Descending Edmonton Center
Sun 12:01:09 PM 51.9500 -115.1833 143° Southeast 310 357 19,700 -1,300 Descending Edmonton Center
Sun 12:02:09 PM 51.8833 -115.1167 148° Southeast 310 357 18,400 -1,250 Descending Edmonton Center
Sun 12:03:09 PM 51.8167 -115.0500 148° Southeast 310 357 17,200 -1,300 Descending Edmonton Center
Sun 12:04:09 PM 51.7333 -114.9667 148° Southeast 300 345 15,800 -1,300 Descending Edmonton Center
Sun 12:05:09 PM 51.6667 -114.9000 148° Southeast 300 345 14,600 -1,250 Descending Edmonton Center
Sun 12:06:09 PM 51.6000 -114.8333 148° Southeast 300 345 13,300 -1,250 Descending Edmonton Center
Sun 12:07:09 PM 51.5333 -114.7333 137° Southeast 290 334 12,100 -1,150 Descending Edmonton Center
Sun 12:08:09 PM 51.5000 -114.6333 118° Southeast 290 334 11,000 -1,100 Descending Edmonton Center
Sun 12:09:09 PM 51.4333 -114.5667 148° Southeast 270 311 9,900 -1,000 Descending Edmonton Center
Sun 12:10:09 PM 51.3667 -114.4833 142° Southeast 260 299 9,000 -900 Descending Edmonton Center
Sun 12:11:09 PM 51.3167 -114.4000 134° Southeast 260 299 8,100 -850 Descending Edmonton Center
Sun 12:12:09 PM 51.2667 -114.3500 148° Southeast 250 288 7,300 -900 Descending Edmonton Center
Sun 12:13:09 PM 51.2000 -114.2500 137° Southeast 250 288 6,300 -1,000 Descending Edmonton Center

Login

Don't have an account? Register now (free) for customized features, flight alerts, and more!